Time;durP1;ratioP1;P1;durP2;ratioP2;P2;SDS_P1;SDS_P2;PMS_P1;PMS_P2;Temp;Humidity;BMP_temperature;BMP_pressure;BME280_temperature;BME280_humidity;BME280_pressure;Samples;Min_cycle;Max_cycle;Signal;HPM_P1;HPM_P2
2022/01/04 00:00:46;;;;;;;11.48;7.38;;;;;;;7.87;100.00;100199.84;4978422;28;20030;-50
2022/01/04 00:03:11;;;;;;;15.85;7.45;;;;;;;7.85;100.00;100188.56;4981460;28;20440;-49
2022/01/04 00:05:38;;;;;;;18.52;8.52;;;;;;;7.82;100.00;100194.19;4981669;28;20208;-49
2022/01/04 00:08:07;;;;;;;22.58;8.50;;;;;;;7.81;100.00;100179.25;4981574;28;20050;-50
2022/01/04 00:10:33;;;;;;;15.68;8.38;;;;;;;7.78;100.00;100177.72;4981053;28;20386;-47
2022/01/04 00:15:44;;;;;;;16.45;8.00;;;;;;;7.77;100.00;100177.88;4980427;28;20049;-47
2022/01/04 00:18:09;;;;;;;15.85;8.30;;;;;;;7.76;100.00;100176.22;4981794;28;20172;-49
2022/01/04 00:20:35;;;;;;;18.55;9.07;;;;;;;7.75;100.00;100179.88;4977829;28;20106;-50
2022/01/04 00:23:00;;;;;;;16.20;9.90;;;;;;;7.74;100.00;100172.88;4961989;28;20225;-47
2022/01/04 00:25:25;;;;;;;17.98;9.23;;;;;;;7.71;100.00;100152.78;4962233;28;20470;-50
2022/01/04 00:27:50;;;;;;;20.27;9.50;;;;;;;7.71;100.00;100158.09;4961424;28;20127;-50
2022/01/04 00:30:16;;;;;;;19.27;9.23;;;;;;;7.70;100.00;100142.31;4962077;28;20362;-48
2022/01/04 00:32:42;;;;;;;20.95;9.25;;;;;;;7.70;100.00;100134.34;4961655;28;20026;-49
2022/01/04 00:35:08;;;;;;;17.50;9.07;;;;;;;7.65;100.00;100126.81;4961990;28;20441;-50
2022/01/04 00:37:33;;;;;;;18.17;9.63;;;;;;;7.65;100.00;100121.50;4961509;28;20027;-49
2022/01/04 00:39:59;;;;;;;15.73;9.57;;;;;;;7.63;100.00;100112.88;4945050;28;20042;-50
2022/01/04 00:42:24;;;;;;;17.77;10.20;;;;;;;7.64;100.00;100104.75;4961039;28;20018;-49
2022/01/04 00:44:49;;;;;;;19.15;10.00;;;;;;;7.65;100.00;100105.56;4961408;28;20022;-51
2022/01/04 00:47:15;;;;;;;20.02;10.65;;;;;;;7.65;100.00;100100.25;4961845;28;20397;-50
2022/01/04 00:49:41;;;;;;;19.98;9.80;;;;;;;7.66;100.00;100104.59;4961408;28;20027;-48
2022/01/04 00:52:07;;;;;;;18.13;9.52;;;;;;;7.65;100.00;100092.28;4960431;28;20075;-48
2022/01/04 00:54:34;;;;;;;24.20;9.93;;;;;;;7.67;100.00;100100.91;4944188;28;20019;-47
2022/01/04 00:56:59;;;;;;;16.50;8.65;;;;;;;7.64;100.00;100093.28;4961402;28;20489;-50
2022/01/04 00:59:24;;;;;;;19.27;9.27;;;;;;;7.66;100.00;100094.78;4961729;28;20029;-48
2022/01/04 01:01:50;;;;;;;22.65;8.70;;;;;;;7.66;100.00;100076.19;4961156;28;20422;-49
2022/01/04 01:04:15;;;;;;;16.88;8.35;;;;;;;7.64;100.00;100078.16;4961705;28;20023;-50
2022/01/04 01:06:40;;;;;;;14.98;8.15;;;;;;;7.62;100.00;100074.84;4960721;28;20380;-49
2022/01/04 01:09:06;;;;;;;15.18;8.07;;;;;;;7.57;100.00;100069.19;4961330;28;20038;-50
2022/01/04 01:11:32;;;;;;;13.57;7.55;;;;;;;7.63;100.00;100073.84;4960412;28;20026;-50
2022/01/04 01:13:57;;;;;;;13.38;7.55;;;;;;;7.62;100.00;100082.81;4961288;28;20034;-51
2022/01/04 01:16:22;;;;;;;18.73;7.18;;;;;;;7.63;100.00;100079.16;4961538;28;20035;-51
2022/01/04 01:18:48;;;;;;;13.52;7.30;;;;;;;7.61;100.00;100085.63;4961160;28;20019;-51
2022/01/04 01:21:13;;;;;;;13.10;7.00;;;;;;;7.60;100.00;100073.31;4960605;28;20061;-47
2022/01/04 01:23:40;;;;;;;16.17;7.22;;;;;;;7.59;100.00;100069.03;4961155;28;20529;-50
2022/01/04 01:26:07;;;;;;;12.55;6.75;;;;;;;7.59;100.00;100066.38;4960813;28;20105;-48
2022/01/04 01:28:33;;;;;;;17.02;6.43;;;;;;;7.57;100.00;100063.88;4959791;28;20027;-49
2022/01/04 01:30:59;;;;;;;13.82;6.68;;;;;;;7.56;100.00;100056.88;4961247;28;20037;-49
2022/01/04 01:33:27;;;;;;;12.35;6.53;;;;;;;7.52;100.00;100050.22;4961928;28;20026;-49
2022/01/04 01:35:52;;;;;;;12.95;6.35;;;;;;;7.51;100.00;100050.41;4961523;28;20375;-49
2022/01/04 01:38:19;;;;;;;14.32;6.72;;;;;;;7.46;100.00;100056.19;4960883;28;20050;-48
2022/01/04 01:40:45;;;;;;;14.05;6.30;;;;;;;7.46;100.00;100045.56;4960581;28;20060;-47
2022/01/04 01:43:10;;;;;;;17.40;7.80;;;;;;;7.44;100.00;100043.06;4960464;28;20011;-49
2022/01/04 01:45:36;;;;;;;15.23;7.72;;;;;;;7.44;100.00;100037.75;4942936;28;20101;-49
2022/01/04 01:48:02;;;;;;;17.27;8.02;;;;;;;7.45;100.00;100039.41;4961875;28;20125;-51
2022/01/04 01:50:28;;;;;;;16.77;8.88;;;;;;;7.43;100.00;100030.78;4961215;28;20489;-51
2022/01/04 01:52:54;;;;;;;17.80;7.70;;;;;;;7.40;100.00;100017.81;4946788;28;20089;-50
2022/01/04 01:55:22;;;;;;;16.42;9.13;;;;;;;7.40;100.00;100031.09;4964779;28;20097;-50
2022/01/04 01:57:48;;;;;;;16.50;8.95;;;;;;;7.38;100.00;100027.78;4964187;28;20035;-49
2022/01/04 02:00:16;;;;;;;17.75;8.57;;;;;;;7.34;100.00;100026.41;4976508;28;20476;-49
2022/01/04 02:02:41;;;;;;;16.88;8.98;;;;;;;7.35;100.00;100030.75;4983514;28;20112;-47
2022/01/04 02:05:08;;;;;;;14.63;9.15;;;;;;;7.35;100.00;100032.56;4984353;28;20074;-48
2022/01/04 02:07:34;;;;;;;20.67;8.57;;;;;;;7.37;100.00;100019.97;4983292;28;20501;-46
2022/01/04 02:10:03;;;;;;;20.00;9.25;;;;;;;7.40;100.00;100019.63;4984785;28;20034;-48
2022/01/04 02:12:33;;;;;;;16.75;9.85;;;;;;;7.40;100.00;100009.84;4982563;28;20030;-50
2022/01/04 02:14:59;;;;;;;14.65;9.32;;;;;;;7.40;100.00;100009.84;4984420;28;20124;-50
2022/01/04 02:17:24;;;;;;;19.38;9.50;;;;;;;7.39;100.00;100002.84;4983597;28;20138;-51
2022/01/04 02:19:53;;;;;;;15.32;8.63;;;;;;;7.42;100.00;99991.09;4983672;28;20062;-51
2022/01/04 02:22:18;;;;;;;15.20;9.45;;;;;;;7.43;100.00;99982.09;4983514;28;20046;-47
2022/01/04 02:24:44;;;;;;;18.33;9.65;;;;;;;7.42;100.00;99981.28;4966037;28;20036;-51
2022/01/04 02:27:10;;;;;;;17.38;9.07;;;;;;;7.41;100.00;99987.59;4982490;28;20033;-47
2022/01/04 02:29:36;;;;;;;18.17;9.00;;;;;;;7.42;100.00;99988.44;4983465;28;20143;-46
2022/01/04 02:32:01;;;;;;;18.70;9.45;;;;;;;7.40;100.00;99988.59;4984046;28;20493;-51
2022/01/04 02:34:26;;;;;;;19.60;9.13;;;;;;;7.39;100.00;99983.44;4983311;28;20093;-48
2022/01/04 02:36:51;;;;;;;16.27;8.73;;;;;;;7.40;100.00;99980.63;4982923;28;20030;-47
2022/01/04 02:39:17;;;;;;;14.75;8.43;;;;;;;7.37;100.00;99988.91;4983649;28;20089;-50
2022/01/04 02:41:42;;;;;;;16.17;9.45;;;;;;;7.38;100.00;99985.28;4982759;28;20110;-49
2022/01/04 02:44:07;;;;;;;14.52;7.55;;;;;;;7.38;100.00;99977.31;4982974;28;20030;-51
2022/01/04 02:46:32;;;;;;;14.35;8.57;;;;;;;7.35;100.00;99967.00;4983045;28;20030;-51
2022/01/04 02:48:58;;;;;;;16.50;8.68;;;;;;;7.38;100.00;99964.03;4976917;28;20051;-47
2022/01/04 02:51:23;;;;;;;14.95;7.75;;;;;;;7.36;100.00;99958.00;4962234;28;20027;-46
2022/01/04 02:53:49;;;;;;;13.40;7.90;;;;;;;7.36;100.00;99965.97;4963478;28;20031;-47
2022/01/04 02:56:14;;;;;;;14.73;7.75;;;;;;;7.36;100.00;99957.19;4963546;28;20508;-47
2022/01/04 02:58:40;;;;;;;13.85;8.00;;;;;;;7.33;100.00;99946.88;4962766;28;20098;-47
2022/01/04 03:01:05;;;;;;;11.73;7.80;;;;;;;7.32;100.00;99943.41;4946525;28;20378;-50
2022/01/04 03:03:31;;;;;;;16.02;7.70;;;;;;;7.34;100.00;99948.56;4962551;28;20054;-51
2022/01/04 03:05:56;;;;;;;13.48;7.47;;;;;;;7.32;100.00;99938.09;4963916;28;20517;-46
2022/01/04 03:08:23;;;;;;;16.90;8.57;;;;;;;7.31;100.00;99927.63;4963982;28;20030;-49
2022/01/04 03:10:48;;;;;;;14.65;8.07;;;;;;;7.32;100.00;99937.28;4962278;28;20098;-51
2022/01/04 03:13:16;;;;;;;13.05;7.97;;;;;;;7.29;100.00;99930.44;4963080;28;20118;-49
2022/01/04 03:15:41;;;;;;;11.63;7.40;;;;;;;7.28;100.00;99932.28;4962982;28;20105;-47
2022/01/04 03:18:06;;;;;;;16.63;8.30;;;;;;;7.28;100.00;99918.16;4963442;28;20038;-49
2022/01/04 03:20:32;;;;;;;13.60;8.65;;;;;;;7.27;100.00;99905.88;4963285;28;20011;-49
2022/01/04 03:22:57;;;;;;;17.90;8.55;;;;;;;7.26;100.00;99898.91;4945738;28;20054;-49
2022/01/04 03:25:23;;;;;;;17.45;9.52;;;;;;;7.22;100.00;99892.25;4963558;28;20046;-49
2022/01/04 03:27:48;;;;;;;19.30;8.68;;;;;;;7.26;100.00;99893.59;4961781;28;20039;-50
2022/01/04 03:30:13;;;;;;;15.68;8.57;;;;;;;7.25;100.00;99884.78;4963482;28;20022;-51
2022/01/04 03:32:38;;;;;;;15.10;9.45;;;;;;;7.24;100.00;99888.44;4962748;28;20023;-51
2022/01/04 03:35:04;;;;;;;14.55;8.10;;;;;;;7.25;100.00;99881.31;4963436;28;20114;-50
2022/01/04 03:37:29;;;;;;;16.73;9.20;;;;;;;7.23;100.00;99870.84;4962411;28;20448;-49
2022/01/04 03:39:55;;;;;;;18.75;10.40;;;;;;;7.22;100.00;99857.75;4963246;28;20112;-50
2022/01/04 03:42:20;;;;;;;14.98;9.77;;;;;;;7.21;100.00;99845.44;4961799;28;20029;-51
2022/01/04 03:44:45;;;;;;;15.45;9.63;;;;;;;7.20;100.00;99841.97;4962645;28;20545;-46
2022/01/04 03:47:10;;;;;;;18.92;9.55;;;;;;;7.20;100.00;99833.19;4962432;28;20030;-50
2022/01/04 03:49:36;;;;;;;18.63;9.18;;;;;;;7.19;100.00;99828.84;4962781;28;20564;-50
2022/01/04 03:52:01;;;;;;;22.08;10.07;;;;;;;7.16;100.00;99829.19;4962665;28;20035;-47
2022/01/04 03:54:26;;;;;;;20.70;10.45;;;;;;;7.16;100.00;99831.81;4962690;28;20025;-50
2022/01/04 03:56:52;;;;;;;17.00;9.63;;;;;;;7.18;100.00;99824.53;4961524;28;20069;-47
2022/01/04 03:59:17;;;;;;;20.20;9.52;;;;;;;7.14;100.00;99817.91;4962584;28;20614;-48
2022/01/04 04:01:43;;;;;;;19.10;8.95;;;;;;;7.15;100.00;99815.06;4962089;28;20146;-47
2022/01/04 04:04:08;;;;;;;24.60;9.18;;;;;;;7.14;100.00;99809.94;4962238;28;20033;-50
2022/01/04 04:06:34;;;;;;;18.88;10.15;;;;;;;7.15;100.00;99814.25;4943254;28;20023;-50
2022/01/04 04:08:59;;;;;;;19.77;9.60;;;;;;;7.12;100.00;99806.63;4945119;28;20393;-49
2022/01/04 04:11:25;;;;;;;18.65;8.90;;;;;;;7.13;100.00;99805.59;4962478;28;20059;-50
2022/01/04 04:13:50;;;;;;;15.75;8.35;;;;;;;7.11;100.00;99808.41;4961024;28;20045;-47
2022/01/04 04:16:16;;;;;;;18.13;9.05;;;;;;;7.15;100.00;99795.66;4944501;28;20493;-50
2022/01/04 04:18:42;;;;;;;16.25;9.27;;;;;;;7.12;100.00;99798.66;4962225;28;20044;-51
2022/01/04 04:21:07;;;;;;;14.70;8.57;;;;;;;7.09;100.00;99787.38;4961820;28;20062;-47
2022/01/04 04:23:32;;;;;;;20.65;9.70;;;;;;;7.09;100.00;99783.84;4961690;28;20426;-47
2022/01/04 04:25:57;;;;;;;20.50;10.10;;;;;;;7.08;100.00;99777.72;4961842;28;20482;-49
2022/01/04 04:28:23;;;;;;;19.38;9.30;;;;;;;7.09;100.00;99781.22;4961690;28;20031;-50
2022/01/04 04:30:48;;;;;;;19.10;8.88;;;;;;;7.07;100.00;99780.53;4962064;28;20570;-51
2022/01/04 04:33:13;;;;;;;18.50;8.85;;;;;;;7.08;100.00;99790.19;4962131;28;20117;-48
2022/01/04 04:35:39;;;;;;;24.42;10.18;;;;;;;7.06;100.00;99782.38;4961741;28;20073;-52
2022/01/04 04:38:06;;;;;;;17.35;9.35;;;;;;;7.05;100.00;99779.88;4961755;28;20031;-51
2022/01/04 04:40:32;;;;;;;18.55;8.88;;;;;;;7.08;100.00;99776.91;4960686;28;20031;-50
2022/01/04 04:42:57;;;;;;;13.07;8.70;;;;;;;7.07;100.00;99776.06;4961534;28;20031;-49
2022/01/04 04:45:23;;;;;;;20.65;8.85;;;;;;;7.06;100.00;99769.09;4945046;28;20117;-47
2022/01/04 04:47:48;;;;;;;20.10;9.40;;;;;;;7.05;100.00;99767.44;4943848;28;20034;-48
2022/01/04 04:50:14;;;;;;;15.93;8.68;;;;;;;7.04;100.00;99771.09;4962510;28;20018;-49
2022/01/04 04:52:40;;;;;;;19.30;9.18;;;;;;;7.03;100.00;99772.09;4961057;28;20072;-50
2022/01/04 04:55:06;;;;;;;19.10;9.35;;;;;;;6.98;100.00;99765.63;4962289;28;20109;-48
2022/01/04 04:57:31;;;;;;;19.02;9.65;;;;;;;7.01;100.00;99762.59;4959889;28;20046;-51
2022/01/04 04:59:57;;;;;;;20.00;9.88;;;;;;;7.00;100.00;99766.28;4961916;28;20027;-49
2022/01/04 05:02:22;;;;;;;16.23;8.93;;;;;;;7.01;100.00;99771.44;4962199;28;20093;-50
2022/01/04 05:04:47;;;;;;;19.90;9.95;;;;;;;6.99;100.00;99768.13;4961633;28;20470;-50
2022/01/04 05:07:13;;;;;;;17.95;9.60;;;;;;;6.99;100.00;99761.94;4961242;28;20033;-51
2022/01/04 05:09:38;;;;;;;19.60;10.05;;;;;;;6.97;100.00;99762.13;4961628;28;20026;-50
2022/01/04 05:12:05;;;;;;;18.33;9.35;;;;;;;6.97;100.00;99762.13;4960178;28;20069;-51
2022/01/04 05:14:31;;;;;;;19.48;9.18;;;;;;;6.94;100.00;99769.56;4961131;28;20097;-50
2022/01/04 05:16:57;;;;;;;18.92;9.18;;;;;;;6.95;100.00;99763.28;4943552;28;20043;-50
2022/01/04 05:19:22;;;;;;;18.55;10.20;;;;;;;6.94;100.00;99753.66;4961876;28;20011;-50
2022/01/04 05:21:47;;;;;;;20.55;9.38;;;;;;;6.95;100.00;99744.72;4960338;28;20042;-48
2022/01/04 05:24:12;;;;;;;18.90;10.10;;;;;;;6.93;100.00;99742.22;4961301;28;20121;-50
2022/01/04 05:26:38;;;;;;;20.00;9.75;;;;;;;6.94;100.00;99737.72;4959010;28;20042;-49
2022/01/04 05:29:03;;;;;;;17.35;9.20;;;;;;;6.90;100.00;99738.06;4975965;28;20033;-51
2022/01/04 05:31:28;;;;;;;19.80;10.00;;;;;;;6.91;100.00;99736.25;4971000;28;20034;-48
2022/01/04 05:33:54;;;;;;;17.50;9.30;;;;;;;6.90;100.00;99730.09;4970256;28;20023;-51
2022/01/04 05:36:19;;;;;;;19.15;10.43;;;;;;;6.88;100.00;99724.13;4969219;28;20123;-50
2022/01/04 05:38:44;;;;;;;16.85;9.18;;;;;;;6.89;100.00;99709.03;4970797;28;20081;-49
2022/01/04 05:41:10;;;;;;;21.35;10.85;;;;;;;6.86;100.00;99704.06;4969325;28;20134;-49
2022/01/04 05:43:36;;;;;;;22.88;10.45;;;;;;;6.87;100.00;99706.56;4979113;28;20474;-50
2022/01/04 05:46:02;;;;;;;21.30;10.38;;;;;;;6.85;100.00;99691.78;4980142;28;20026;-50
2022/01/04 05:48:27;;;;;;;19.33;10.45;;;;;;;6.85;100.00;99703.22;4980122;28;20053;-50
2022/01/04 05:50:52;;;;;;;23.33;10.93;;;;;;;6.83;100.00;99694.59;4980454;28;20447;-48
2022/01/04 05:53:18;;;;;;;20.38;9.82;;;;;;;6.85;100.00;99699.75;4979203;28;20096;-48
2022/01/04 05:55:43;;;;;;;21.52;9.80;;;;;;;6.85;100.00;99697.09;4978942;28;20022;-51
2022/01/04 05:58:08;;;;;;;22.02;9.55;;;;;;;6.85;100.00;99697.09;4979326;28;20122;-51
2022/01/04 06:00:33;;;;;;;26.27;9.90;;;;;;;6.85;100.00;99702.41;4979396;28;20093;-51
2022/01/04 06:03:00;;;;;;;21.80;9.63;;;;;;;6.83;100.00;99705.22;4980313;28;20042;-51
2022/01/04 06:05:27;;;;;;;24.98;10.57;;;;;;;6.81;100.00;99691.28;4980010;28;20114;-51
2022/01/04 06:07:52;;;;;;;25.27;10.77;;;;;;;6.84;100.00;99700.72;4978918;28;20030;-50
2022/01/04 06:10:17;;;;;;;25.20;10.88;;;;;;;6.82;100.00;99692.94;4979416;28;20433;-47
2022/01/04 06:15:11;;;;;;;30.33;11.98;;;;;;;6.79;100.00;99681.81;4962565;28;20027;-49
2022/01/04 06:17:39;;;;;;;30.45;11.15;;;;;;;6.78;100.00;99686.31;4979298;28;20034;-50
2022/01/04 06:20:06;;;;;;;33.53;12.50;;;;;;;6.80;100.00;99694.09;4980410;28;20031;-50
2022/01/04 06:22:32;;;;;;;33.33;12.15;;;;;;;6.78;100.00;99686.31;4979061;28;20057;-50
2022/01/04 06:24:57;;;;;;;32.17;12.32;;;;;;;6.79;100.00;99682.66;4980095;28;20110;-49
2022/01/04 06:27:23;;;;;;;34.45;11.68;;;;;;;6.77;100.00;99670.53;4978080;28;20026;-50
2022/01/04 06:29:49;;;;;;;32.15;12.75;;;;;;;6.74;100.00;99674.38;4980567;28;20040;-50
2022/01/04 06:32:14;;;;;;;35.08;13.27;;;;;;;6.69;100.00;99685.47;4980275;28;20030;-51
2022/01/04 06:34:41;;;;;;;31.40;11.43;;;;;;;6.66;100.00;99688.44;4980112;28;20449;-51
2022/01/04 06:37:08;;;;;;;34.30;13.18;;;;;;;6.64;100.00;99694.91;4978660;28;20428;-51
2022/01/04 06:39:33;;;;;;;38.17;13.55;;;;;;;6.62;100.00;99688.94;4983887;28;20026;-50
2022/01/04 06:41:59;;;;;;;34.90;13.52;;;;;;;6.57;100.00;99670.03;4982775;28;20041;-52
2022/01/04 06:44:24;;;;;;;41.63;13.85;;;;;;;6.57;100.00;99680.63;4983779;28;20356;-51
2022/01/04 06:46:51;;;;;;;32.85;12.82;;;;;;;6.58;100.00;99679.66;4982972;28;20026;-52
2022/01/04 06:49:18;;;;;;;32.90;13.90;;;;;;;6.59;100.00;99684.78;4983833;28;20062;-49
2022/01/04 06:51:44;;;;;;;33.97;13.73;;;;;;;6.61;100.00;99672.19;4982535;28;20041;-51
2022/01/04 06:54:11;;;;;;;33.28;13.45;;;;;;;6.60;100.00;99662.59;4983922;28;20429;-48
2022/01/04 06:56:38;;;;;;;30.58;12.75;;;;;;;6.63;100.00;99653.47;4981778;28;20453;-51
2022/01/04 06:59:05;;;;;;;37.15;13.60;;;;;;;6.64;100.00;99644.50;4983872;28;20413;-48
2022/01/04 07:01:30;;;;;;;32.40;13.73;;;;;;;6.64;100.00;99647.16;4964866;28;20057;-50
2022/01/04 07:03:55;;;;;;;37.03;14.60;;;;;;;6.65;100.00;99651.47;4966493;28;20037;-50
2022/01/04 07:06:21;;;;;;;34.67;14.50;;;;;;;6.66;100.00;99650.47;4982876;28;20034;-49
2022/01/04 07:08:47;;;;;;;43.20;14.55;;;;;;;6.65;100.00;99636.41;4983057;28;20446;-50
2022/01/04 07:11:13;;;;;;;35.53;15.82;;;;;;;6.66;100.00;99631.91;4965187;28;20418;-51
2022/01/04 07:13:38;;;;;;;42.08;16.45;;;;;;;6.62;100.00;99620.81;4982569;28;20109;-46
2022/01/04 07:16:04;;;;;;;44.13;16.08;;;;;;;6.64;100.00;99626.75;4983173;28;20421;-51
2022/01/04 07:18:29;;;;;;;39.58;13.90;;;;;;;6.60;100.00;99622.78;4982387;28;20100;-49
2022/01/04 07:20:55;;;;;;;46.78;18.75;;;;;;;6.63;100.00;99630.41;4983412;28;20037;-51
2022/01/04 07:23:20;;;;;;;44.03;18.15;;;;;;;6.66;100.00;99624.78;4982566;28;20461;-49
2022/01/04 07:25:45;;;;;;;52.92;19.58;;;;;;;6.68;100.00;99625.44;4981927;28;20540;-51
2022/01/04 07:28:11;;;;;;;47.80;20.10;;;;;;;6.72;100.00;99617.97;4982274;28;20105;-50
2022/01/04 07:30:36;;;;;;;47.40;19.35;;;;;;;6.72;100.00;99605.53;4982424;28;20054;-50
2022/01/04 07:33:01;;;;;;;42.85;17.48;;;;;;;6.71;100.00;99587.94;4983201;28;20031;-49
2022/01/04 07:35:27;;;;;;;42.28;16.92;;;;;;;6.72;100.00;99591.44;4982801;28;20019;-50
2022/01/04 07:37:52;;;;;;;39.75;15.75;;;;;;;6.71;100.00;99589.78;4981945;28;20086;-50
2022/01/04 07:40:18;;;;;;;39.28;16.35;;;;;;;6.68;100.00;99590.94;4982351;28;20037;-47
2022/01/04 07:42:43;;;;;;;37.05;15.57;;;;;;;6.70;100.00;99593.44;4981274;28;20018;-48
2022/01/04 07:45:09;;;;;;;34.60;15.55;;;;;;;6.69;100.00;99597.91;4982850;28;20022;-49
2022/01/04 07:47:34;;;;;;;44.72;15.20;;;;;;;6.68;100.00;99595.44;4966084;28;20035;-47
2022/01/04 07:49:59;;;;;;;33.63;14.70;;;;;;;6.67;100.00;99610.53;4969619;28;20022;-49
2022/01/04 07:52:25;;;;;;;38.58;16.10;;;;;;;6.67;100.00;99621.13;4982186;28;20102;-47
2022/01/04 07:54:51;;;;;;;44.60;18.00;;;;;;;6.67;100.00;99617.63;4961147;28;20037;-50
2022/01/04 07:57:16;;;;;;;43.78;17.80;;;;;;;6.64;100.00;99610.84;4980720;28;20497;-50
2022/01/04 07:59:42;;;;;;;43.33;16.60;;;;;;;6.67;100.00;99629.09;4981349;28;20201;-51
2022/01/04 08:02:07;;;;;;;43.33;16.85;;;;;;;6.65;100.00;99616.97;4981634;28;20488;-50
2022/01/04 08:04:33;;;;;;;37.50;16.90;;;;;;;6.66;100.00;99606.19;4981148;28;20084;-48
2022/01/04 08:06:59;;;;;;;41.30;17.38;;;;;;;6.62;100.00;99593.44;4981600;28;20338;-47
2022/01/04 08:09:24;;;;;;;46.55;19.10;;;;;;;6.67;100.00;99605.22;4982476;28;20022;-49
2022/01/04 08:11:51;;;;;;;49.95;19.75;;;;;;;6.68;100.00;99606.84;4956631;28;20122;-48
2022/01/04 08:14:16;;;;;;;46.53;18.35;;;;;;;6.70;100.00;99604.03;4981082;28;20092;-48
2022/01/04 08:16:42;;;;;;;40.35;17.38;;;;;;;6.70;100.00;99609.34;4980820;28;20125;-47
2022/01/04 08:19:07;;;;;;;45.95;19.35;;;;;;;6.69;100.00;99605.88;4978733;28;20164;-50
2022/01/04 08:21:32;;;;;;;45.03;19.05;;;;;;;6.71;100.00;99617.13;4981114;28;20317;-50
2022/01/04 08:23:58;;;;;;;40.97;17.80;;;;;;;6.73;100.00;99614.31;4982492;28;20029;-48
2022/01/04 08:26:24;;;;;;;46.80;19.13;;;;;;;6.73;100.00;99620.44;4980918;28;20410;-50
2022/01/04 08:28:50;;;;;;;47.55;18.02;;;;;;;6.75;100.00;99617.63;4981042;28;20449;-50
2022/01/04 08:31:15;;;;;;;50.42;20.27;;;;;;;6.79;100.00;99616.31;4980812;28;20108;-51
2022/01/04 08:33:41;;;;;;;47.88;19.80;;;;;;;6.80;100.00;99619.78;4963672;28;20386;-51
2022/01/04 08:36:08;;;;;;;44.22;19.35;;;;;;;6.80;100.00;99617.13;4973720;28;20081;-47
2022/01/04 08:38:34;;;;;;;49.83;19.50;;;;;;;6.83;100.00;99624.78;4961667;28;20381;-51
2022/01/04 08:40:59;;;;;;;54.63;22.10;;;;;;;6.85;100.00;99620.13;4962016;28;20045;-51
2022/01/04 08:43:26;;;;;;;55.58;23.58;;;;;;;6.85;100.00;99623.59;4961657;28;20076;-49
2022/01/04 08:45:52;;;;;;;48.50;20.27;;;;;;;6.86;100.00;99624.44;4961836;28;20464;-51
2022/01/04 08:48:17;;;;;;;49.40;22.08;;;;;;;6.85;100.00;99642.19;4961854;28;20027;-49
2022/01/04 08:50:44;;;;;;;49.13;20.27;;;;;;;6.88;100.00;99649.00;4972749;28;20037;-51
2022/01/04 08:53:11;;;;;;;50.15;20.73;;;;;;;6.89;100.00;99632.03;4980816;28;20113;-49
2022/01/04 08:55:36;;;;;;;52.83;21.67;;;;;;;6.89;100.00;99650.63;4979898;28;20037;-50
2022/01/04 08:58:02;;;;;;;48.97;20.40;;;;;;;6.93;100.00;99648.50;4980405;28;20030;-50
2022/01/04 09:00:27;;;;;;;53.22;22.20;;;;;;;6.93;100.00;99641.34;4980564;28;20114;-48
2022/01/04 09:02:52;;;;;;;53.97;21.42;;;;;;;6.90;100.00;99639.03;4971816;28;20030;-49
2022/01/04 09:05:17;;;;;;;47.97;21.05;;;;;;;6.97;100.00;99653.28;4967191;28;20696;-51
2022/01/04 09:07:43;;;;;;;52.08;22.00;;;;;;;7.00;100.00;99654.78;4960541;28;20027;-48
2022/01/04 09:10:08;;;;;;;56.33;22.48;;;;;;;7.04;100.00;99650.78;4961708;28;20110;-50
2022/01/04 09:13:05;;;;;;;49.83;22.05;;;;;;;7.06;100.00;99640.81;4942624;28;20071;-50
2022/01/04 09:20:51;;;;;;;56.42;23.60;;;;;;;7.14;100.00;99629.38;4961838;28;20208;-46
2022/01/04 09:23:20;;;;;;;54.72;23.52;;;;;;;7.15;100.00;99625.75;4969206;28;20129;-49
2022/01/04 09:25:47;;;;;;;70.00;25.60;;;;;;;7.14;100.00;99638.16;4971626;28;20129;-50
2022/01/04 09:28:13;;;;;;;67.97;25.80;;;;;;;7.14;100.00;99638.16;4971667;28;20462;-50
2022/01/04 09:30:40;;;;;;;56.05;24.40;;;;;;;7.14;100.00;99661.25;4971397;28;20118;-47
2022/01/04 09:33:05;;;;;;;59.97;23.15;;;;;;;7.14;100.00;99648.78;4978300;28;20035;-50
2022/01/04 09:35:32;;;;;;;59.38;24.05;;;;;;;7.15;100.00;99661.06;4981125;28;20022;-47
2022/01/04 09:37:58;;;;;;;58.60;25.05;;;;;;;7.15;100.00;99657.59;4980948;28;20032;-50
2022/01/04 09:40:24;;;;;;;64.32;23.65;;;;;;;7.16;100.00;99661.91;4978027;28;20030;-50
2022/01/04 09:42:50;;;;;;;56.88;23.20;;;;;;;7.16;100.00;99659.25;4969665;28;20289;-48
2022/01/04 09:45:15;;;;;;;55.67;23.63;;;;;;;7.15;100.00;99652.28;4971896;28;20101;-50
2022/01/04 09:47:41;;;;;;;56.95;23.90;;;;;;;7.16;100.00;99661.91;4968970;28;20026;-49
2022/01/04 09:50:10;;;;;;;63.47;25.48;;;;;;;7.18;100.00;99663.41;4970891;28;20068;-50
2022/01/04 09:52:42;;;;;;;63.03;24.50;;;;;;;7.19;100.00;99649.09;4970491;28;20030;-51
2022/01/04 09:55:10;;;;;;;51.42;23.65;;;;;;;7.22;100.00;99646.13;4971636;28;20025;-52
2022/01/04 09:57:35;;;;;;;60.80;23.48;;;;;;;7.24;100.00;99637.97;4969490;28;20351;-50
2022/01/04 10:00:01;;;;;;;64.63;24.60;;;;;;;7.25;100.00;99643.13;4966765;28;20023;-50
2022/01/04 10:02:30;;;;;;;59.92;22.90;;;;;;;7.26;100.00;99647.47;4960780;28;20038;-49
2022/01/04 10:05:15;;;;;;;57.75;24.30;;;;;;;7.27;100.00;99642.97;4961631;28;20806;-49
2022/01/04 10:07:41;;;;;;;61.72;25.20;;;;;;;7.27;100.00;99640.31;4965657;28;20112;-48
2022/01/04 10:10:12;;;;;;;58.35;23.83;;;;;;;7.32;100.00;99645.13;4970357;28;20114;-51
2022/01/04 10:12:56;;;;;;;62.00;24.77;;;;;;;7.33;100.00;99655.56;4968423;28;20117;-48
2022/01/04 10:15:41;;;;;;;57.35;23.25;;;;;;;7.36;100.00;99644.59;4978136;28;20102;-47
2022/01/04 10:18:13;;;;;;;58.15;23.42;;;;;;;7.37;100.00;99627.66;4975191;28;20072;-46
2022/01/04 10:20:39;;;;;;;60.95;25.15;;;;;;;7.40;100.00;99626.47;4974253;28;20023;-49
2022/01/04 10:23:16;;;;;;;60.92;25.02;;;;;;;7.35;100.00;99592.50;4972258;28;20508;-49
2022/01/04 10:25:42;;;;;;;63.42;25.95;;;;;;;7.40;100.00;99592.81;4963884;28;20545;-49
2022/01/04 10:28:07;;;;;;;58.55;24.33;;;;;;;7.42;100.00;99609.38;4963920;28;20178;-50
2022/01/04 10:30:39;;;;;;;60.20;24.92;;;;;;;7.43;100.00;99599.59;4963970;28;20034;-49
2022/01/04 10:33:05;;;;;;;63.08;26.92;;;;;;;7.45;100.00;99606.41;4964478;28;20110;-50
2022/01/04 10:35:58;;;;;;;60.70;23.63;;;;;;;7.48;100.00;99615.84;4964169;28;20085;-50
2022/01/04 10:38:32;;;;;;;64.68;25.60;;;;;;;7.49;100.00;99603.41;4963194;28;20486;-50
2022/01/04 10:41:03;;;;;;;62.33;24.15;;;;;;;7.51;100.00;99598.75;4962780;28;20037;-46
2022/01/04 10:43:31;;;;;;;57.55;25.13;;;;;;;7.51;100.00;99599.56;4964688;28;20102;-50
2022/01/04 10:45:59;;;;;;;64.43;27.52;;;;;;;7.51;100.00;99606.72;4964241;28;20107;-51
2022/01/04 10:48:27;;;;;;;59.67;25.08;;;;;;;7.47;100.00;99607.03;4964893;28;20030;-48
2022/01/04 10:50:55;;;;;;;67.78;25.70;;;;;;;7.52;100.00;99603.03;4964500;28;20366;-51
2022/01/04 10:53:31;;;;;;;58.78;24.90;;;;;;;7.53;100.00;99600.22;4946832;28;20027;-49
2022/01/04 10:56:03;;;;;;;66.20;26.13;;;;;;;7.54;100.00;99599.22;4962878;28;20101;-48
2022/01/04 10:58:33;;;;;;;67.45;27.35;;;;;;;7.55;100.00;99606.19;4946806;28;20181;-49
2022/01/04 11:01:01;;;;;;;69.15;27.65;;;;;;;7.55;100.00;99605.34;4971960;28;20030;-51
2022/01/04 11:03:30;;;;;;;61.55;25.52;;;;;;;7.54;100.00;99611.69;4965131;28;20251;-51
2022/01/04 11:05:58;;;;;;;62.40;26.98;;;;;;;7.55;100.00;99615.97;4956946;28;20031;-51
2022/01/04 11:08:24;;;;;;;64.53;26.85;;;;;;;7.52;100.00;99611.84;4971650;28;20488;-50
2022/01/04 11:10:50;;;;;;;74.07;29.05;;;;;;;7.50;100.00;99619.13;4962041;28;20034;-51
2022/01/04 11:13:15;;;;;;;66.97;28.45;;;;;;;7.43;100.00;99610.22;4964353;28;20019;-48
2022/01/04 11:15:42;;;;;;;65.97;26.70;;;;;;;7.39;100.00;99614.22;4974698;28;20030;-50
2022/01/04 11:18:08;;;;;;;62.83;26.27;;;;;;;7.26;100.00;99609.44;4983681;28;20041;-49
2022/01/04 11:20:39;;;;;;;59.95;24.30;;;;;;;7.16;100.00;99617.59;4983504;28;20029;-49
2022/01/04 11:23:06;;;;;;;67.33;25.17;;;;;;;7.12;100.00;99624.22;4982116;28;20050;-49
2022/01/04 11:25:31;;;;;;;54.70;21.45;;;;;;;7.02;100.00;99628.91;4981405;28;20488;-46